createdAt,value
2018-06-23T00:00:12.583Z,73.50
2018-06-23T00:04:15.911Z,73.70
2018-06-23T00:08:19.264Z,73.50
2018-06-23T00:12:22.565Z,72.70
2018-06-23T00:16:25.903Z,73.00
2018-06-23T00:20:29.262Z,73.80
2018-06-23T00:24:32.583Z,73.80
2018-06-23T00:28:35.939Z,73.90
2018-06-23T00:32:39.303Z,74.80
2018-06-23T00:36:42.623Z,73.30
2018-06-23T00:40:45.952Z,73.10
2018-06-23T00:44:49.423Z,73.10
2018-06-23T00:48:52.739Z,73.20
2018-06-23T00:52:56.084Z,73.40
2018-06-23T00:56:59.423Z,73.80
2018-06-23T01:01:02.758Z,75.10
2018-06-23T01:05:06.147Z,74.00
2018-06-23T01:09:10.622Z,73.10
2018-06-23T01:13:13.959Z,76.10
2018-06-23T01:17:17.337Z,74.40
2018-06-23T01:21:20.720Z,73.20
2018-06-23T01:25:24.821Z,73.40
2018-06-23T01:29:28.275Z,73.10
2018-06-23T01:37:34.733Z,74.40
2018-06-23T01:41:38.153Z,73.50
2018-06-23T01:45:41.497Z,74.20
2018-06-23T01:49:44.845Z,74.50
2018-06-23T01:53:48.312Z,74.70
2018-06-23T01:57:51.676Z,74.10
2018-06-23T02:01:55.091Z,74.30
2018-06-23T02:05:58.451Z,74.80
2018-06-23T02:10:01.799Z,74.40
2018-06-23T02:14:10.358Z,76.10
2018-06-23T02:18:19.059Z,74.00
2018-06-23T02:22:27.814Z,75.30
2018-06-23T02:26:36.628Z,74.80
2018-06-23T02:30:52.136Z,74.80
2018-06-23T02:34:59.920Z,76.20
2018-06-23T02:39:04.970Z,74.60
2018-06-23T02:43:08.352Z,75.00
2018-06-23T02:47:11.720Z,75.50
2018-06-23T02:51:15.135Z,78.00
2018-06-23T02:55:18.486Z,75.00
2018-06-23T02:59:21.860Z,77.30
2018-06-23T03:03:25.223Z,75.30
2018-06-23T03:07:28.608Z,75.00
2018-06-23T03:11:31.942Z,74.80
2018-06-23T03:15:35.335Z,75.10
2018-06-23T03:19:39.147Z,76.90
2018-06-23T03:23:42.504Z,76.00
2018-06-23T03:27:45.853Z,77.20
2018-06-23T03:31:49.233Z,78.40
2018-06-23T03:35:52.735Z,76.00
2018-06-23T03:39:56.092Z,78.80
2018-06-23T03:43:59.425Z,76.70
2018-06-23T03:48:02.937Z,75.90
2018-06-23T03:52:06.313Z,77.40
2018-06-23T03:56:09.656Z,77.00
2018-06-23T04:00:12.978Z,77.20
2018-06-23T04:04:16.343Z,79.20
2018-06-23T04:08:19.684Z,76.30
2018-06-23T04:16:26.040Z,76.90
2018-06-23T04:20:29.590Z,77.90
2018-06-23T04:24:32.993Z,77.80
2018-06-23T04:28:36.335Z,78.90
2018-06-23T04:32:39.728Z,78.80
2018-06-23T04:36:43.057Z,78.50
2018-06-23T04:40:46.578Z,79.10
2018-06-23T04:44:49.897Z,78.60
2018-06-23T04:48:53.235Z,77.90
2018-06-23T04:52:56.570Z,79.40
2018-06-23T04:56:59.871Z,78.10
2018-06-23T05:01:03.235Z,77.80
2018-06-23T05:05:06.634Z,77.10
2018-06-23T05:09:10.028Z,77.70
2018-06-23T05:13:13.365Z,81.90
2018-06-23T05:17:16.690Z,80.00
2018-06-23T05:21:20.096Z,78.10
2018-06-23T05:25:23.420Z,77.60
2018-06-23T05:29:26.771Z,79.60
2018-06-23T05:33:30.105Z,78.60
2018-06-23T05:37:33.443Z,84.60
2018-06-23T05:41:36.798Z,82.20
2018-06-23T05:45:40.315Z,82.50
2018-06-23T05:49:43.644Z,80.90
2018-06-23T05:53:46.983Z,81.10
2018-06-23T05:57:50.303Z,78.70
2018-06-23T06:01:53.791Z,80.10
2018-06-23T06:06:21.548Z,83.60
2018-06-23T06:10:24.887Z,80.70
2018-06-23T06:14:28.311Z,79.30
2018-06-23T06:18:31.709Z,79.00
2018-06-23T06:22:37.422Z,79.00
2018-06-23T06:26:40.771Z,79.20
2018-06-23T06:30:44.110Z,78.80
2018-06-23T06:34:47.581Z,80.30
2018-06-23T06:38:50.944Z,79.90
2018-06-23T06:42:54.266Z,79.60
2018-06-23T06:46:58.147Z,80.10
2018-06-23T06:51:01.515Z,80.40
2018-06-23T06:55:04.938Z,80.20
2018-06-23T06:59:08.302Z,81.80
2018-06-23T07:03:11.610Z,81.60
2018-06-23T07:07:14.956Z,81.10
2018-06-23T07:11:18.295Z,78.10
2018-06-23T07:15:21.623Z,81.50
2018-06-23T07:19:25.067Z,80.50
2018-06-23T07:23:28.450Z,78.90
2018-06-23T07:27:31.750Z,79.00
2018-06-23T07:31:35.332Z,81.40
2018-06-23T07:35:38.684Z,77.40
2018-06-23T07:39:42.047Z,81.30
2018-06-23T07:43:45.463Z,78.10
2018-06-23T07:47:48.792Z,78.10
2018-06-23T07:51:52.146Z,78.30
2018-06-23T07:55:55.498Z,79.30
2018-06-23T07:59:58.835Z,78.50
2018-06-23T08:04:02.150Z,80.40
2018-06-23T08:08:05.580Z,78.40
2018-06-23T08:12:08.926Z,81.80
2018-06-23T08:16:12.268Z,81.00
2018-06-23T08:24:18.677Z,83.70
2018-06-23T08:28:21.995Z,79.00
2018-06-23T08:32:25.336Z,79.00
2018-06-23T08:36:28.686Z,79.10
2018-06-23T08:40:32.027Z,78.10
2018-06-23T08:44:35.368Z,79.60
2018-06-23T08:48:38.688Z,78.60
2018-06-23T08:52:42.036Z,77.60
2018-06-23T08:56:45.387Z,77.90
2018-06-23T09:00:48.860Z,77.10
2018-06-23T09:04:52.169Z,77.20
2018-06-23T09:08:55.512Z,76.50
2018-06-23T09:17:01.950Z,76.10
2018-06-23T09:21:05.406Z,75.90
2018-06-23T09:25:08.748Z,76.00
2018-06-23T09:29:12.077Z,76.20
2018-06-23T09:33:15.418Z,75.80
2018-06-23T09:37:18.773Z,75.80
2018-06-23T09:41:28.475Z,76.70
2018-06-23T09:45:31.827Z,76.00
2018-06-23T09:49:35.165Z,75.60
2018-06-23T09:53:38.519Z,74.70
2018-06-23T09:57:41.860Z,74.50
2018-06-23T10:01:45.264Z,75.20
2018-06-23T10:05:48.567Z,75.20
2018-06-23T10:09:51.891Z,74.40
2018-06-23T10:13:55.235Z,74.60
2018-06-23T10:17:58.610Z,74.10
2018-06-23T10:22:01.948Z,73.80
2018-06-23T10:26:05.269Z,75.10
2018-06-23T10:30:08.668Z,73.70
2018-06-23T10:34:12.007Z,71.60
2018-06-23T10:38:15.398Z,73.80
2018-06-23T10:42:18.735Z,74.10
2018-06-23T10:46:22.162Z,72.50
2018-06-23T10:50:25.487Z,71.80
2018-06-23T10:54:28.831Z,72.80
2018-06-23T10:58:32.178Z,72.30
2018-06-23T11:02:35.552Z,73.40
2018-06-23T11:06:38.858Z,73.60
2018-06-23T11:10:42.176Z,71.70
2018-06-23T11:14:45.546Z,73.70
2018-06-23T11:18:48.902Z,71.10
2018-06-23T11:22:52.232Z,73.00
2018-06-23T11:26:55.684Z,72.50
2018-06-23T11:30:59.012Z,72.20
2018-06-23T11:35:02.345Z,72.70
2018-06-23T11:39:08.031Z,72.70
2018-06-23T11:43:11.368Z,71.50
2018-06-23T11:47:14.704Z,71.80
2018-06-23T11:51:18.121Z,72.20
2018-06-23T11:55:21.512Z,72.50
2018-06-23T11:59:24.887Z,72.70
2018-06-23T12:03:28.238Z,72.50
2018-06-23T12:07:31.610Z,70.60
2018-06-23T12:11:35.026Z,72.40
2018-06-23T12:15:38.383Z,72.10
2018-06-23T12:19:41.748Z,72.20
2018-06-23T12:23:45.094Z,71.10
2018-06-23T12:27:48.423Z,71.70
2018-06-23T12:31:51.762Z,72.00
2018-06-23T12:35:55.101Z,71.60
2018-06-23T12:39:58.414Z,71.40
2018-06-23T12:44:01.745Z,71.70
2018-06-23T12:48:05.723Z,69.10
2018-06-23T12:56:12.092Z,71.80
2018-06-23T13:00:15.439Z,71.90
2018-06-23T13:04:18.791Z,71.30
2018-06-23T13:08:22.127Z,70.90
2018-06-23T13:12:25.419Z,71.50
2018-06-23T13:16:28.752Z,69.90
2018-06-23T13:20:32.095Z,71.10
2018-06-23T13:24:35.420Z,71.60
2018-06-23T13:28:38.747Z,70.40
2018-06-23T13:32:42.067Z,69.50
2018-06-23T13:40:48.545Z,70.50
2018-06-23T13:44:51.887Z,71.00
2018-06-23T13:48:55.264Z,70.30
2018-06-23T13:52:58.583Z,70.50
2018-06-23T13:57:01.921Z,69.90
2018-06-23T14:01:05.360Z,69.00
2018-06-23T14:05:08.691Z,67.50
2018-06-23T14:09:13.294Z,68.70
2018-06-23T14:13:16.615Z,70.10
2018-06-23T14:17:19.955Z,68.10
2018-06-23T14:21:23.298Z,67.50
2018-06-23T14:25:26.640Z,64.70
2018-06-23T14:29:29.959Z,66.20
2018-06-23T14:33:33.281Z,68.60
2018-06-23T14:37:36.631Z,65.40
2018-06-23T14:41:40.084Z,67.50
2018-06-23T14:45:43.432Z,68.80
2018-06-23T14:49:46.776Z,66.30
2018-06-23T14:53:50.117Z,68.10
2018-06-23T14:57:53.450Z,66.20
2018-06-23T15:01:56.831Z,69.30
2018-06-23T15:06:02.128Z,69.30
2018-06-23T15:10:16.683Z,68.10
2018-06-23T15:14:19.984Z,68.20
2018-06-23T15:18:23.334Z,67.60
2018-06-23T15:22:26.699Z,68.40
2018-06-23T15:26:30.216Z,69.70
2018-06-23T15:30:33.559Z,67.80
2018-06-23T15:34:36.892Z,66.00
2018-06-23T15:38:40.229Z,67.70
2018-06-23T15:42:43.564Z,68.70
2018-06-23T15:46:46.910Z,68.10
2018-06-23T15:50:50.264Z,67.60
2018-06-23T15:54:53.586Z,66.70
2018-06-23T15:58:56.950Z,67.60
2018-06-23T16:03:00.279Z,68.10
2018-06-23T16:07:03.600Z,67.70
2018-06-23T16:11:06.963Z,67.20
2018-06-23T16:15:10.272Z,68.30
2018-06-23T16:19:13.602Z,68.80
2018-06-23T16:23:16.919Z,68.10
2018-06-23T16:27:20.232Z,68.30
2018-06-23T16:31:23.555Z,67.40
2018-06-23T16:35:27.385Z,67.90
2018-06-23T16:39:30.192Z,69.50
2018-06-23T16:43:33.528Z,69.40
2018-06-23T16:47:36.858Z,69.50
2018-06-23T16:51:40.194Z,70.00
2018-06-23T16:55:43.500Z,70.00
2018-06-23T16:59:46.819Z,70.40
2018-06-23T17:03:50.324Z,70.40
2018-06-23T17:07:53.550Z,70.60
2018-06-23T17:11:56.877Z,70.50
2018-06-23T17:16:00.164Z,70.40
2018-06-23T17:20:03.543Z,70.60
2018-06-23T17:24:06.878Z,70.80
2018-06-23T17:28:11.118Z,70.90
2018-06-23T17:32:14.486Z,71.20
2018-06-23T17:36:17.826Z,71.00
2018-06-23T17:40:21.123Z,71.20
2018-06-23T17:44:24.470Z,71.40
2018-06-23T17:48:27.783Z,71.30
2018-06-23T17:52:31.091Z,71.30
2018-06-23T17:56:34.421Z,71.30
2018-06-23T18:00:37.735Z,71.30
2018-06-23T18:04:41.128Z,71.60
2018-06-23T18:08:44.455Z,71.40
2018-06-23T18:12:47.780Z,71.70
2018-06-23T18:16:51.118Z,71.60
2018-06-23T18:20:54.508Z,71.70
2018-06-23T18:24:57.813Z,71.70
2018-06-23T18:29:01.155Z,71.60
2018-06-23T18:33:04.509Z,71.70
2018-06-23T18:37:07.823Z,72.10
2018-06-23T18:41:11.131Z,71.90
2018-06-23T18:45:14.696Z,72.00
2018-06-23T18:49:18.026Z,72.00
2018-06-23T18:53:21.415Z,72.10
2018-06-23T18:57:24.859Z,72.10
2018-06-23T19:01:28.550Z,72.70
2018-06-23T19:05:31.944Z,72.30
2018-06-23T19:09:35.336Z,72.50
2018-06-23T19:13:38.795Z,72.60
2018-06-23T19:17:42.162Z,72.40
2018-06-23T19:21:45.595Z,72.30
2018-06-23T19:25:48.929Z,72.30
2018-06-23T19:29:52.291Z,72.60
2018-06-23T19:33:55.626Z,72.70
2018-06-23T19:37:59.085Z,72.40
2018-06-23T19:42:02.451Z,72.60
2018-06-23T19:46:06.008Z,72.50
2018-06-23T19:50:09.451Z,72.20
2018-06-23T19:54:12.851Z,72.30
2018-06-23T19:58:16.189Z,72.80
2018-06-23T20:02:19.564Z,72.30
2018-06-23T20:06:22.883Z,73.10
2018-06-23T20:10:26.283Z,72.40
2018-06-23T20:14:29.611Z,73.10
2018-06-23T20:18:32.956Z,72.50
2018-06-23T20:22:36.265Z,72.80
2018-06-23T20:26:39.651Z,72.70
2018-06-23T20:30:42.975Z,72.80
2018-06-23T20:34:46.292Z,72.80
2018-06-23T20:38:49.610Z,72.90
2018-06-23T20:42:52.928Z,73.00
2018-06-23T20:46:56.265Z,73.20
2018-06-23T20:50:59.612Z,73.00
2018-06-23T20:55:02.981Z,73.70
2018-06-23T20:59:06.563Z,73.80
2018-06-23T21:03:10.123Z,72.90
2018-06-23T21:07:13.472Z,72.90
2018-06-23T21:11:16.824Z,73.80
2018-06-23T21:15:20.168Z,73.70
2018-06-23T21:19:23.528Z,73.20
2018-06-23T21:23:26.826Z,73.60
2018-06-23T21:27:30.176Z,73.20
2018-06-23T21:31:33.512Z,73.20
2018-06-23T21:35:36.853Z,73.20
2018-06-23T21:39:40.178Z,73.20
2018-06-23T21:43:43.778Z,73.50
2018-06-23T21:47:47.304Z,73.60
2018-06-23T21:51:50.926Z,73.10
2018-06-23T21:55:54.316Z,73.20
2018-06-23T22:00:00.025Z,73.20
2018-06-23T22:04:03.389Z,73.20
2018-06-23T22:08:07.741Z,73.60
2018-06-23T22:12:11.076Z,73.00
2018-06-23T22:16:14.415Z,73.10
2018-06-23T22:20:19.414Z,73.10
2018-06-23T22:24:22.839Z,73.50
2018-06-23T22:28:26.222Z,73.30
2018-06-23T22:32:29.641Z,73.40
2018-06-23T22:36:33.122Z,73.40
2018-06-23T22:40:36.539Z,73.20
2018-06-23T22:44:39.940Z,73.70
2018-06-23T22:48:44.660Z,73.40
2018-06-23T22:52:48.071Z,73.10
2018-06-23T22:56:51.525Z,73.60
2018-06-23T23:00:54.892Z,73.50
2018-06-23T23:04:58.286Z,73.30
2018-06-23T23:09:01.631Z,73.40
2018-06-23T23:13:05.018Z,73.40
2018-06-23T23:17:08.398Z,73.60
2018-06-23T23:21:11.879Z,73.70
2018-06-23T23:25:15.228Z,73.70
2018-06-23T23:29:18.582Z,73.40
2018-06-23T23:33:21.958Z,73.40
2018-06-23T23:37:25.364Z,73.50
2018-06-23T23:41:28.787Z,73.60
2018-06-23T23:45:32.152Z,73.70
2018-06-23T23:49:35.576Z,73.80
2018-06-23T23:53:38.989Z,73.50
2018-06-23T23:57:42.430Z,74.00
